KEGE/EGE METAR and TAF weather

Enter ICAO airport designator
Station Type Date Time Source
KEGE METAR 2018/06/25 01:56 UTC NOAA

KEGE 250156Z AUTO 08006KT 10SM CLR 21/02 A3018 RMK AO2 SLP161 T02060022


Station Type Date Time Source
KEGE Decoded METAR 2018/06/25 01:56 UTC NOAA

Eagle County Regional, CO, United States (KEGE) 39-39N 106-55W
Jun 24, 2018 - 09:56 PM EDT / 2018.06.25 0156 UTC
Wind: from the E (080 degrees) at 7 MPH (6 KT):0
Visibility: 10 mile(s):0
Sky conditions: clear
Temperature: 69.1 F (20.6 C)
Dew Point: 36.0 F (2.2 C)
Relative Humidity: 29%
Pressure (altimeter): 30.18 in. Hg (1022 hPa)
ob: KEGE 250156Z AUTO 08006KT 10SM CLR 21/02 A3018 RMK AO2 SLP161 T02060022
cycle: 2

Station Type Date Time Source
KEGE TAF 2018/06/24 18:33 UTC NOAA

TAF KEGE 241730Z 2418/2518 29010KT P6SM FEW070 BKN140
FM241930 29008KT P6SM VCSH SCT070 BKN140
FM250100 32010KT P6SM FEW090 SCT250
FM250300 35008KT P6SM FEW250
FM251200 00000KT P6SM SKC


Example: see airport list